Time;durP1;ratioP1;P1;durP2;ratioP2;P2;SDS_P1;SDS_P2;PMS_P1;PMS_P2;Temp;Humidity;BMP_temperature;BMP_pressure;BME280_temperature;BME280_humidity;BME280_pressure;Samples;Min_cycle;Max_cycle;Signal;HPM_P1;HPM_P2
2022/06/26 00:01:08;;;;;;;;;;;;;;;18.53;78.35;99852.66;5115337;28;20488;-85
2022/06/26 00:03:33;;;;;;;8.83;4.57;;;;;;;18.41;78.95;99857.78;5096820;28;20354;-83
2022/06/26 00:05:58;;;;;;;;;;;;;;;18.32;78.90;99861.72;5114734;28;20614;-84
2022/06/26 00:08:25;;;;;;;8.50;4.17;;;;;;;18.15;79.42;99859.75;5114850;28;19965;-83
2022/06/26 00:10:51;;;;;;;7.15;4.22;;;;;;;18.16;79.47;99875.09;5115112;28;20057;-85
2022/06/26 00:13:17;;;;;;;7.57;4.45;;;;;;;18.21;79.34;99871.94;5114417;28;20035;-85
2022/06/26 00:15:43;;;;;;;6.82;3.80;;;;;;;18.22;79.54;99867.22;5114460;28;20085;-84
2022/06/26 00:18:08;;;;;;;;;;;;;;;18.19;79.65;99851.47;5115152;28;20040;-83
2022/06/26 00:20:35;;;;;;;6.05;3.25;;;;;;;18.32;78.83;99872.75;5114510;28;20370;-84
2022/06/26 00:23:00;;;;;;;7.90;3.95;;;;;;;18.24;79.15;99898.72;5096441;28;20096;-82
2022/06/26 00:25:26;;;;;;;6.38;3.83;;;;;;;18.11;79.79;99900.25;5114509;28;20060;-82
2022/06/26 00:27:51;;;;;;;;;;;;;;;17.97;80.45;99903.78;5115247;28;20331;-84
2022/06/26 00:30:17;;;;;;;6.23;3.20;;;;;;;18.01;80.38;99890.03;5114272;28;19912;-82
2022/06/26 00:32:43;;;;;;;7.95;3.92;;;;;;;17.99;80.63;99882.16;5114048;28;20265;-82
2022/06/26 00:35:09;;;;;;;5.97;3.45;;;;;;;18.06;80.43;99864.81;5114370;28;20049;-85
2022/06/26 00:37:34;;;;;;;;;;;;;;;17.90;81.69;99854.19;5114440;28;20545;-85
2022/06/26 00:40:00;;;;;;;5.40;3.00;;;;;;;17.91;81.60;99836.47;5115087;28;19908;-86
2022/06/26 00:42:25;;;;;;;;;;;;;;;17.85;82.05;99820.72;5115804;28;20293;-86
2022/06/26 00:44:55;;;;;;;12.68;6.90;;;;;;;17.82;82.74;99821.50;5116095;28;19911;-86
2022/06/26 00:47:22;;;;;;;7.38;3.72;;;;;;;17.66;83.95;99822.63;5115230;28;20076;-86
2022/06/26 00:49:48;;;;;;;9.57;5.32;;;;;;;17.77;83.34;99821.88;5116501;28;20031;-86
2022/06/26 00:52:16;;;;;;;8.10;3.58;;;;;;;18.01;82.28;99815.63;5112272;28;20043;-86
2022/06/26 00:54:42;;;;;;;5.70;3.33;;;;;;;18.06;82.62;99820.75;5135019;28;20049;-86
2022/06/26 00:57:07;;;;;;;6.43;3.17;;;;;;;18.17;81.86;99832.59;5134067;28;20028;-85
2022/06/26 00:59:32;;;;;;;;;;;;;;;18.48;80.61;99841.25;5126565;28;20031;-84
2022/06/26 01:01:58;;;;;;;6.60;3.35;;;;;;;18.36;80.38;99849.91;5125875;28;19911;-84
2022/06/26 01:04:24;;;;;;;5.45;2.70;;;;;;;18.31;80.98;99842.81;5127402;28;20024;-84
2022/06/26 01:06:50;;;;;;;5.18;2.53;;;;;;;18.33;81.27;99841.25;5127288;28;20031;-84
2022/06/26 01:09:16;;;;;;;5.25;2.97;;;;;;;18.26;81.42;99835.72;5125810;28;20043;-83
2022/06/26 01:11:43;;;;;;;5.85;2.97;;;;;;;18.11;81.65;99834.13;5124959;28;20059;-84
2022/06/26 01:14:09;;;;;;;7.10;2.50;;;;;;;18.14;81.56;99824.28;5101882;28;20023;-84
2022/06/26 01:16:34;;;;;;;5.25;3.20;;;;;;;18.13;82.02;99829.00;5120041;28;20038;-83
2022/06/26 01:19:00;;;;;;;;;;;;;;;18.11;81.94;99844.38;5103713;28;20023;-84
2022/06/26 01:21:27;;;;;;;4.82;2.70;;;;;;;17.89;82.73;99849.84;5120643;28;19938;-84
2022/06/26 01:23:54;;;;;;;5.40;2.95;;;;;;;18.06;81.82;99842.78;5121847;28;20522;-84
2022/06/26 01:26:20;;;;;;;5.82;2.75;;;;;;;17.90;82.92;99850.63;5105867;28;20358;-83
2022/06/26 01:28:46;;;;;;;5.07;2.72;;;;;;;17.64;83.57;99866.28;5108270;28;20031;-85
2022/06/26 01:31:11;;;;;;;4.35;2.58;;;;;;;17.63;84.06;99864.69;5116502;28;20031;-84
2022/06/26 01:33:36;;;;;;;;;;;;;;;17.64;84.19;99874.53;5098069;28;20028;-83
2022/06/26 01:36:03;;;;;;;6.63;2.72;;;;;;;17.61;84.35;99880.00;5114516;28;20386;-84
2022/06/26 01:38:28;;;;;;;5.40;2.85;;;;;;;17.79;83.80;99874.59;5095696;28;20023;-85
2022/06/26 01:40:56;;;;;;;7.28;3.10;;;;;;;17.54;84.75;99878.03;5113251;28;20104;-84
2022/06/26 01:43:29;;;;;;;7.15;3.00;;;;;;;17.55;84.95;99871.34;5113430;28;20039;-85
2022/06/26 01:45:56;;;;;;;6.82;3.05;;;;;;;17.45;84.94;99877.59;5113545;28;20067;-86
2022/06/26 01:48:24;;;;;;;5.38;3.17;;;;;;;17.39;85.37;99877.19;5113372;28;20026;-84
2022/06/26 01:50:50;;;;;;;5.78;3.10;;;;;;;17.43;84.98;99883.47;5095075;28;20071;-85
2022/06/26 01:53:15;;;;;;;5.63;3.17;;;;;;;17.33;85.58;99884.22;5113471;28;20038;-84
2022/06/26 01:55:41;;;;;;;;;;;;;;;17.31;85.44;99891.31;5113843;28;20023;-84
2022/06/26 01:58:08;;;;;;;5.35;2.97;;;;;;;17.34;85.35;99896.03;5095027;28;19919;-85
2022/06/26 02:00:37;;;;;;;5.93;3.20;;;;;;;17.33;85.31;99894.44;5113101;28;20032;-85
2022/06/26 02:03:04;;;;;;;6.00;3.05;;;;;;;17.25;85.40;99890.84;5112745;28;20040;-85
2022/06/26 02:05:29;;;;;;;7.32;3.72;;;;;;;17.20;85.66;99906.94;5113076;28;20024;-85
2022/06/26 02:07:55;;;;;;;;;;;;;;;17.11;85.81;99916.31;5113487;28;20024;-85
2022/06/26 02:15:54;;;;;;;7.88;4.00;;;;;;;17.13;86.12;99919.50;5112679;28;20031;-84
2022/06/26 02:18:19;;;;;;;;;;;;;;;17.04;86.31;99924.53;5113425;28;20031;-82
2022/06/26 02:20:45;;;;;;;8.00;3.90;;;;;;;16.92;86.88;99924.84;5112865;28;19911;-83
2022/06/26 02:23:11;;;;;;;;;;;;;;;16.88;87.16;99929.53;5113523;28;20032;-84
2022/06/26 02:25:37;;;;;;;9.45;4.18;;;;;;;16.82;87.38;99942.06;5112975;28;19907;-82
2022/06/26 02:28:03;;;;;;;;;;;;;;;16.81;87.46;99929.47;5095319;28;20067;-83
2022/06/26 02:30:28;;;;;;;7.47;3.88;;;;;;;16.75;87.41;99933.75;5116353;28;20006;-83
2022/06/26 02:32:56;;;;;;;;;;;;;;;16.68;87.91;99933.69;5117219;28;20157;-84
2022/06/26 02:35:25;;;;;;;8.50;4.03;;;;;;;16.69;87.98;99940.78;5116800;28;19908;-82
2022/06/26 02:37:52;;;;;;;8.88;4.82;;;;;;;16.67;87.87;99921.91;5116643;28;20030;-84
2022/06/26 02:40:19;;;;;;;8.57;4.18;;;;;;;16.69;88.10;99924.28;5116641;28;20039;-85
2022/06/26 02:42:45;;;;;;;9.40;4.40;;;;;;;16.68;88.01;99919.94;5116579;28;20177;-83
2022/06/26 02:45:10;;;;;;;;;;;;;;;16.65;88.35;99923.44;5116774;28;20505;-84
2022/06/26 02:47:35;;;;;;;10.75;4.00;;;;;;;16.68;88.12;99919.94;5116620;28;19939;-85
2022/06/26 02:50:03;;;;;;;;;;;;;;;16.77;87.85;99923.16;5116707;28;20023;-84
2022/06/26 02:52:29;;;;;;;7.50;3.42;;;;;;;16.73;88.04;99927.84;5116411;28;19923;-85
2022/06/26 02:54:54;;;;;;;7.45;4.00;;;;;;;17.00;86.30;99925.69;5098398;28;20097;-84
2022/06/26 02:57:20;;;;;;;;;;;;;;;17.00;86.20;99937.47;5098389;28;20466;-83
2022/06/26 02:59:45;;;;;;;7.13;3.35;;;;;;;16.82;87.32;99939.31;5098149;28;19912;-85
2022/06/26 03:02:10;;;;;;;;;;;;;;;16.70;87.77;99932.13;5099525;28;20389;-84
2022/06/26 03:04:36;;;;;;;6.18;3.55;;;;;;;16.68;87.92;99925.44;5118080;28;19911;-84
2022/06/26 03:07:01;;;;;;;;;;;;;;;16.84;87.84;99928.72;5119109;28;20023;-84
2022/06/26 03:09:26;;;;;;;7.17;3.53;;;;;;;17.02;86.82;99935.13;5117742;28;19911;-84
2022/06/26 03:11:52;;;;;;;;;;;;;;;16.74;87.63;99935.69;5117081;28;20257;-84
2022/06/26 03:14:17;;;;;;;6.45;3.42;;;;;;;16.65;88.36;99940.72;5116284;28;19973;-85
2022/06/26 03:16:42;;;;;;;;;;;;;;;16.66;88.17;99939.53;5116625;28;20050;-84
2022/06/26 03:19:07;;;;;;;6.47;3.70;;;;;;;16.69;88.13;99940.78;5115949;28;19916;-84
2022/06/26 03:21:33;;;;;;;;;;;;;;;16.66;88.01;99939.53;5097137;28;20442;-83
2022/06/26 03:24:01;;;;;;;10.07;4.43;;;;;;;16.65;88.09;99953.66;5115906;28;19984;-84
2022/06/26 03:26:26;;;;;;;8.02;4.43;;;;;;;16.61;88.19;99958.31;5115785;28;20256;-83
2022/06/26 03:28:51;;;;;;;;;;;;;;;16.58;88.38;99967.34;5115669;28;20028;-83
2022/06/26 03:31:18;;;;;;;7.73;4.03;;;;;;;16.56;88.64;99973.22;5115103;28;20010;-85
2022/06/26 03:33:43;;;;;;;7.60;4.38;;;;;;;16.55;88.39;99968.88;5097189;28;20978;-84
2022/06/26 03:36:09;;;;;;;;;;;;;;;16.52;88.71;99975.94;5115932;28;20051;-84
2022/06/26 03:38:35;;;;;;;6.23;3.60;;;;;;;16.66;87.94;99977.25;5097204;28;19921;-84
2022/06/26 03:41:01;;;;;;;9.95;4.57;;;;;;;16.57;88.51;99991.28;5114180;28;20277;-84
2022/06/26 03:43:26;;;;;;;;;;;;;;;16.59;88.57;99994.44;5115431;28;20077;-84
2022/06/26 03:45:53;;;;;;;9.45;4.28;;;;;;;16.58;88.43;100000.31;5096890;28;20417;-83
2022/06/26 03:48:18;;;;;;;7.72;4.07;;;;;;;16.54;88.78;100008.53;5114923;28;20492;-83
2022/06/26 03:50:43;;;;;;;;;;;;;;;16.61;88.07;100008.59;5115559;28;20035;-82
2022/06/26 03:53:10;;;;;;;10.13;4.23;;;;;;;16.61;88.09;100007.81;5096633;28;19912;-83
2022/06/26 03:55:36;;;;;;;7.60;4.05;;;;;;;16.63;87.76;100000.78;5096797;28;20031;-84
2022/06/26 03:58:02;;;;;;;;;;;;;;;16.58;88.02;99995.59;5096613;28;20032;-82
2022/06/26 04:00:28;;;;;;;7.13;3.67;;;;;;;16.59;87.96;99994.44;5114502;28;19907;-83
2022/06/26 04:02:55;;;;;;;8.57;4.50;;;;;;;16.63;87.91;99994.47;5114847;28;20028;-83
2022/06/26 04:05:20;;;;;;;11.27;4.40;;;;;;;16.62;87.96;99992.88;5115047;28;20043;-85
2022/06/26 04:07:45;;;;;;;;;;;;;;;16.64;87.80;99990.56;5114944;28;20035;-82
2022/06/26 04:10:11;;;;;;;7.43;3.95;;;;;;;16.71;87.56;100004.41;5114822;28;19912;-84
2022/06/26 04:12:37;;;;;;;;;;;;;;;16.85;86.72;100004.53;5115097;28;20472;-83
2022/06/26 04:15:03;;;;;;;10.88;4.55;;;;;;;16.68;87.64;99997.72;5114577;28;19918;-84
2022/06/26 04:17:28;;;;;;;;;;;;;;;16.62;88.31;100003.88;5115054;28;20030;-83
2022/06/26 04:19:54;;;;;;;7.47;3.93;;;;;;;16.87;87.31;100013.19;5114399;28;20349;-83
2022/06/26 04:22:22;;;;;;;8.93;4.55;;;;;;;16.70;88.06;100019.31;5096245;28;20794;-85
2022/06/26 04:24:47;;;;;;;10.40;5.10;;;;;;;16.64;88.34;100020.81;5114123;28;20120;-84
2022/06/26 04:27:12;;;;;;;;;;;;;;;16.61;88.79;100013.28;5115136;28;20023;-82
2022/06/26 04:29:38;;;;;;;11.93;6.00;;;;;;;16.58;88.75;100025.84;5114412;28;19988;-84
2022/06/26 04:32:03;;;;;;;;;;;;;;;16.60;88.98;100022.72;5114520;28;20529;-83
2022/06/26 04:34:29;;;;;;;9.50;5.03;;;;;;;16.65;88.69;100025.13;5096030;28;19912;-84
2022/06/26 04:36:54;;;;;;;;;;;;;;;16.65;88.76;100019.63;5114582;28;20031;-84
2022/06/26 04:39:19;;;;;;;8.47;4.10;;;;;;;16.68;88.37;100013.41;5114176;28;19912;-84
2022/06/26 04:41:45;;;;;;;;;;;;;;;16.83;88.20;100009.63;5114343;28;20409;-83
2022/06/26 04:44:12;;;;;;;8.23;4.43;;;;;;;16.75;88.18;99996.97;5095750;28;19968;-84
2022/06/26 04:46:39;;;;;;;12.02;5.10;;;;;;;16.87;87.43;100006.91;5095613;28;20050;-83
2022/06/26 04:49:05;;;;;;;8.52;4.95;;;;;;;16.89;87.29;100004.56;5113884;28;20032;-82
2022/06/26 04:51:30;;;;;;;9.00;5.00;;;;;;;17.19;85.93;99998.91;5114677;28;20112;-82
2022/06/26 04:53:56;;;;;;;;;;;;;;;17.14;85.80;99997.31;5114325;28;20031;-82
2022/06/26 04:56:21;;;;;;;11.38;4.50;;;;;;;17.16;85.58;100018.94;5113517;28;19911;-82
2022/06/26 04:58:47;;;;;;;;;;;;;;;17.22;85.31;100025.66;5113779;28;20049;-82
2022/06/26 05:01:14;;;;;;;7.90;4.50;;;;;;;17.09;85.42;100028.69;5113679;28;19994;-81
2022/06/26 05:03:39;;;;;;;8.50;4.78;;;;;;;16.98;85.96;100033.34;5113207;28;20650;-82
2022/06/26 05:06:05;;;;;;;;;;;;;;;16.92;86.37;100026.59;5113714;28;20039;-81
2022/06/26 05:08:30;;;;;;;9.60;4.82;;;;;;;16.93;86.14;100030.91;5113555;28;20007;-81
2022/06/26 05:10:55;;;;;;;;;;;;;;;17.01;85.92;100040.03;5113615;28;20039;-81
2022/06/26 05:13:21;;;;;;;9.25;4.68;;;;;;;16.88;85.89;100039.53;5113414;28;19977;-83
2022/06/26 05:15:46;;;;;;;;;;;;;;;16.77;85.75;100042.16;5113719;28;20019;-82
2022/06/26 05:18:12;;;;;;;7.78;3.95;;;;;;;16.79;85.75;100041.78;5113009;28;19907;-81
2022/06/26 05:20:38;;;;;;;;;;;;;;;16.74;86.07;100045.66;5113925;28;20417;-81
2022/06/26 05:23:03;;;;;;;7.63;4.18;;;;;;;16.76;85.96;100037.84;5113524;28;19965;-82
2022/06/26 05:25:28;;;;;;;;;;;;;;;16.94;85.24;100046.25;5113730;28;20032;-81
2022/06/26 05:27:54;;;;;;;8.37;4.37;;;;;;;16.77;85.79;100044.13;5113264;28;20007;-82
2022/06/26 05:30:19;;;;;;;;;;;;;;;16.70;85.74;100058.59;5113406;28;20352;-82
2022/06/26 05:32:45;;;;;;;7.00;3.65;;;;;;;16.62;85.45;100056.09;5113273;28;20311;-81
2022/06/26 05:35:10;;;;;;;;;;;;;;;16.61;85.51;100060.03;5113704;28;20028;-82
2022/06/26 05:37:35;;;;;;;12.53;4.13;;;;;;;16.59;85.68;100065.13;5095013;28;19915;-81
2022/06/26 05:40:00;;;;;;;;;;;;;;;16.59;85.67;100065.13;5113531;28;20767;-82
2022/06/26 05:42:26;;;;;;;7.57;3.80;;;;;;;16.64;85.55;100062.84;5112916;28;19915;-83
2022/06/26 05:44:51;;;;;;;;;;;;;;;16.73;85.27;100059.81;5095247;28;20273;-82
2022/06/26 05:47:16;;;;;;;8.10;4.60;;;;;;;16.77;84.77;100060.63;5113258;28;19911;-83
2022/06/26 05:49:41;;;;;;;;;;;;;;;16.72;84.96;100078.25;5114520;28;20348;-82
2022/06/26 05:52:07;;;;;;;9.30;4.93;;;;;;;16.70;84.81;100075.09;5115707;28;19916;-81
2022/06/26 05:54:32;;;;;;;;;;;;;;;16.75;84.62;100080.25;5113931;28;20032;-81
2022/06/26 05:56:58;;;;;;;8.45;4.90;;;;;;;16.78;84.39;100079.47;5094844;28;19961;-81
2022/06/26 05:59:23;;;;;;;;;;;;;;;16.89;84.23;100067.81;5113461;28;20042;-80
2022/06/26 06:01:48;;;;;;;7.87;3.83;;;;;;;16.89;83.95;100074.09;5112599;28;20318;-81
2022/06/26 06:04:14;;;;;;;;;;;;;;;16.89;83.58;100090.59;5114928;28;20314;-80
2022/06/26 06:06:39;;;;;;;9.82;3.63;;;;;;;16.96;83.38;100111.88;5116785;28;19911;-81
2022/06/26 06:09:04;;;;;;;;;;;;;;;17.05;82.90;100107.66;5117237;28;20024;-82
2022/06/26 06:11:30;;;;;;;7.15;4.03;;;;;;;17.09;81.81;100105.72;5117022;28;20323;-82
2022/06/26 06:13:55;;;;;;;;;;;;;;;17.41;81.06;100118.97;5117652;28;20027;-82
2022/06/26 06:16:20;;;;;;;5.40;2.97;;;;;;;17.22;79.40;100111.75;5117073;28;19912;-82
2022/06/26 06:18:45;;;;;;;;;;;;;;;17.17;78.72;100103.84;5117241;28;20032;-83
2022/06/26 06:21:11;;;;;;;5.63;2.23;;;;;;;16.90;77.62;100105.94;5116806;28;19919;-85
2022/06/26 06:23:36;;;;;;;;;;;;;;;17.06;77.75;100114.75;5117233;28;20032;-82
2022/06/26 06:26:02;;;;;;;5.30;2.60;;;;;;;17.17;77.33;100109.34;5116897;28;19956;-83
2022/06/26 06:28:27;;;;;;;;;;;;;;;17.27;76.98;100121.59;5098873;28;20065;-83
2022/06/26 06:30:52;;;;;;;4.80;2.53;;;;;;;17.29;76.52;100119.25;5099004;28;19908;-83
2022/06/26 06:33:18;;;;;;;;;;;;;;;17.29;75.17;100130.28;5099160;28;20110;-83
2022/06/26 06:35:43;;;;;;;4.82;2.40;;;;;;;17.20;74.14;100146.31;5116516;28;20000;-84
2022/06/26 06:38:09;;;;;;;;;;;;;;;17.28;74.45;100145.19;5116977;28;20024;-82
2022/06/26 06:40:34;;;;;;;4.22;2.08;;;;;;;17.57;74.70;100147.03;5116654;28;19912;-82
2022/06/26 06:42:59;;;;;;;;;;;;;;;17.57;73.15;100152.53;5116630;28;20047;-81
2022/06/26 06:45:25;;;;;;;4.00;2.00;;;;;;;17.64;73.71;100165.59;5116605;28;19916;-82
2022/06/26 06:47:50;;;;;;;;;;;;;;;17.62;73.77;100171.47;5116509;28;20293;-81
2022/06/26 06:50:16;;;;;;;3.80;1.73;;;;;;;17.55;72.86;100168.66;5116928;28;20014;-82
2022/06/26 06:52:41;;;;;;;;;;;;;;;17.62;73.67;100165.94;5116867;28;20297;-81
2022/06/26 06:55:07;;;;;;;5.47;2.25;;;;;;;17.79;73.37;100169.25;5116240;28;20042;-81
2022/06/26 06:57:32;;;;;;;;;;;;;;;17.86;72.36;100180.34;5116927;28;20405;-83
2022/06/26 06:59:58;;;;;;;4.80;2.00;;;;;;;17.74;73.06;100178.66;5116363;28;20367;-82
2022/06/26 07:02:23;;;;;;;;;;;;;;;18.34;69.73;100192.88;5116506;28;20059;-82
2022/06/26 07:04:48;;;;;;;7.03;2.20;;;;;;;19.01;67.83;100193.59;5116467;28;19976;-83
2022/06/26 07:07:14;;;;;;;3.38;1.70;;;;;;;19.04;67.44;100187.28;5117767;28;20066;-81
2022/06/26 07:09:39;;;;;;;4.75;1.90;;;;;;;19.21;66.55;100197.59;5101225;28;20043;-82
2022/06/26 07:12:05;;;;;;;3.92;1.67;;;;;;;19.51;65.50;100206.31;5117624;28;20024;-82
2022/06/26 07:14:31;;;;;;;3.80;1.80;;;;;;;19.93;63.86;100207.53;5115765;28;20034;-81
2022/06/26 07:16:57;;;;;;;3.75;2.10;;;;;;;19.45;65.68;100216.16;5114530;28;20418;-81
2022/06/26 07:19:24;;;;;;;7.53;2.83;;;;;;;19.52;65.13;100212.63;5115610;28;20122;-83
2022/06/26 07:21:50;;;;;;;5.07;2.15;;;;;;;20.05;62.47;100201.59;5097608;28;20023;-82
2022/06/26 07:24:15;;;;;;;5.80;2.35;;;;;;;20.51;60.72;100199.97;5115997;28;20031;-80
2022/06/26 07:26:41;;;;;;;4.25;1.75;;;;;;;20.31;62.38;100202.34;5097925;28;20039;-81
2022/06/26 07:29:08;;;;;;;5.40;2.00;;;;;;;21.18;58.76;100183.06;5116690;28;20461;-85
2022/06/26 07:31:34;;;;;;;3.15;1.60;;;;;;;20.73;59.18;100195.94;5116308;28;20466;-84
2022/06/26 07:34:15;;;;;;;3.55;1.60;;;;;;;20.82;59.41;100192.72;5115958;28;20042;-83
2022/06/26 07:36:43;;;;;;;5.28;1.50;;;;;;;20.41;59.29;100196.03;5116051;28;20023;-84
2022/06/26 07:39:14;;;;;;;5.53;1.33;;;;;;;19.93;62.82;100202.00;5115064;28;20500;-83
2022/06/26 07:41:40;;;;;;;5.63;1.50;;;;;;;19.66;63.23;100209.91;5115580;28;20043;-82
2022/06/26 07:44:06;;;;;;;3.50;1.23;;;;;;;19.68;63.81;100209.53;5115559;28;20049;-82
2022/06/26 07:46:37;;;;;;;2.60;1.00;;;;;;;19.16;64.32;100211.78;5115346;28;20065;-82
2022/06/26 07:49:03;;;;;;;2.95;1.10;;;;;;;19.17;64.64;100211.38;5114934;28;20054;-81
2022/06/26 07:51:28;;;;;;;3.47;1.30;;;;;;;18.79;65.15;100209.25;5114947;28;20036;-82
2022/06/26 07:53:54;;;;;;;3.05;1.13;;;;;;;18.73;65.00;100208.06;5096914;28;20031;-82
2022/06/26 07:56:21;;;;;;;2.55;1.13;;;;;;;18.96;64.07;100202.22;5097253;28;20038;-82
2022/06/26 07:58:48;;;;;;;4.30;1.92;;;;;;;18.97;65.88;100220.34;5097603;28;20046;-82
2022/06/26 08:01:13;;;;;;;4.45;1.23;;;;;;;18.92;65.51;100224.28;5115178;28;20035;-81
2022/06/26 08:03:39;;;;;;;2.90;1.27;;;;;;;18.78;64.91;100235.25;5115184;28;20055;-80
2022/06/26 08:06:05;;;;;;;2.95;1.33;;;;;;;19.22;64.59;100226.75;5115095;28;20463;-82
2022/06/26 08:08:31;;;;;;;3.53;1.20;;;;;;;19.19;63.44;100231.09;5114930;28;20032;-81
2022/06/26 08:10:56;;;;;;;3.05;1.63;;;;;;;19.32;63.59;100231.53;5114902;28;20031;-81
2022/06/26 08:13:21;;;;;;;3.83;1.70;;;;;;;19.49;63.25;100239.06;5115285;28;20035;-81
2022/06/26 08:15:47;;;;;;;;;;;;;;;19.44;62.78;100231.13;5115190;28;20538;-81
2022/06/26 08:18:12;;;;;;;3.73;1.70;;;;;;;19.46;62.22;100228.00;5114559;28;20346;-79
2022/06/26 08:20:38;;;;;;;;;;;;;;;19.42;63.32;100236.28;5114601;28;20634;-79
2022/06/26 08:23:03;;;;;;;3.78;1.98;;;;;;;19.58;62.97;100238.69;5114152;28;19912;-78
2022/06/26 08:25:29;;;;;;;5.13;2.10;;;;;;;19.47;62.52;100233.13;5113980;28;20020;-80
2022/06/26 08:27:54;;;;;;;4.78;2.17;;;;;;;19.52;63.02;100243.00;5095537;28;20084;-80
2022/06/26 08:30:19;;;;;;;;;;;;;;;19.43;61.41;100248.09;5114619;28;20112;-78
2022/06/26 08:32:45;;;;;;;4.68;1.58;;;;;;;19.76;61.45;100245.03;5114054;28;20346;-78
2022/06/26 08:35:11;;;;;;;;;;;;;;;19.47;61.52;100240.59;5114753;28;20083;-78
2022/06/26 08:37:37;;;;;;;2.75;1.30;;;;;;;19.88;62.38;100234.78;5114036;28;20354;-78
2022/06/26 08:40:03;;;;;;;2.85;1.25;;;;;;;19.37;61.99;100239.44;5114117;28;20038;-78
2022/06/26 08:42:30;;;;;;;2.45;1.00;;;;;;;19.28;62.83;100241.75;5113899;28;20381;-78
2022/06/26 08:44:59;;;;;;;2.35;0.88;;;;;;;19.32;62.57;100245.34;5114278;28;20454;-80
2022/06/26 08:47:26;;;;;;;3.20;1.48;;;;;;;19.50;63.02;100250.91;5113562;28;20039;-80
2022/06/26 08:49:52;;;;;;;2.20;0.88;;;;;;;19.71;61.60;100247.41;5113851;28;20024;-82
2022/06/26 08:52:20;;;;;;;3.13;1.25;;;;;;;20.02;60.77;100257.69;5113924;28;20023;-80
2022/06/26 08:54:46;;;;;;;4.97;1.13;;;;;;;19.83;60.95;100252.53;5113331;28;20462;-77
2022/06/26 08:57:13;;;;;;;3.33;1.17;;;;;;;19.95;61.50;100249.38;5113623;28;20522;-76
2022/06/26 08:59:38;;;;;;;3.20;1.17;;;;;;;19.83;61.54;100250.56;5113771;28;20073;-78
2022/06/26 09:02:04;;;;;;;4.15;1.17;;;;;;;19.59;61.64;100245.78;5113244;28;20058;-77
2022/06/26 09:04:30;;;;;;;3.00;1.23;;;;;;;19.62;60.77;100239.47;5095343;28;20119;-79
2022/06/26 09:06:56;;;;;;;4.70;1.80;;;;;;;19.72;61.01;100244.25;5113495;28;20028;-79
2022/06/26 09:09:27;;;;;;;4.88;1.50;;;;;;;19.76;61.70;100253.31;5113310;28;20031;-80
2022/06/26 09:11:59;;;;;;;3.25;1.33;;;;;;;19.95;61.19;100259.63;5113535;28;20389;-79
2022/06/26 09:14:26;;;;;;;3.35;1.50;;;;;;;20.20;61.05;100256.88;5113425;28;20509;-78
2022/06/26 09:16:52;;;;;;;3.97;1.40;;;;;;;20.03;60.45;100261.22;5113462;28;20092;-79
2022/06/26 09:19:24;;;;;;;3.38;1.20;;;;;;;20.27;59.43;100259.63;5113186;28;20446;-79
2022/06/26 09:21:51;;;;;;;2.60;1.00;;;;;;;20.16;59.06;100261.63;5113417;28;20028;-79
2022/06/26 09:24:18;;;;;;;2.65;1.30;;;;;;;20.22;58.73;100266.34;5113277;28;20032;-79
2022/06/26 09:26:45;;;;;;;3.15;1.20;;;;;;;20.44;58.20;100256.06;5113250;28;20382;-79
2022/06/26 09:29:20;;;;;;;2.80;1.38;;;;;;;20.36;59.54;100257.25;5113010;28;20035;-78
2022/06/26 09:31:45;;;;;;;3.60;1.10;;;;;;;20.36;58.97;100246.19;5113265;28;20031;-78
2022/06/26 09:34:23;;;;;;;3.03;1.23;;;;;;;20.16;59.77;100248.59;5113234;28;20029;-78
2022/06/26 09:36:59;;;;;;;2.50;1.10;;;;;;;20.09;60.71;100235.56;5113029;28;20034;-77
2022/06/26 09:39:25;;;;;;;2.65;1.27;;;;;;;20.18;60.20;100232.41;5112228;28;20035;-77
2022/06/26 09:41:51;;;;;;;2.92;1.08;;;;;;;20.10;60.47;100244.63;5112660;28;20462;-78
2022/06/26 09:44:20;;;;;;;4.85;1.20;;;;;;;20.04;60.84;100255.31;5113140;28;20045;-78
2022/06/26 09:46:46;;;;;;;3.30;1.10;;;;;;;20.03;61.34;100247.41;5112950;28;20088;-79
2022/06/26 09:49:12;;;;;;;3.78;1.50;;;;;;;20.09;60.71;100249.38;5112749;28;20028;-78
2022/06/26 09:51:38;;;;;;;3.90;1.30;;;;;;;20.19;59.72;100250.56;5113041;28;20028;-79
2022/06/26 09:54:04;;;;;;;3.00;1.20;;;;;;;20.42;59.48;100250.16;5113147;28;20053;-79
2022/06/26 09:56:31;;;;;;;3.13;1.30;;;;;;;20.58;59.62;100253.28;5112764;28;20467;-79
2022/06/26 09:58:58;;;;;;;4.65;1.35;;;;;;;20.48;58.42;100245.00;5113028;28;20036;-80
2022/06/26 10:06:58;;;;;;;2.83;1.50;;;;;;;20.81;58.61;100258.34;5112587;28;20054;-78
2022/06/26 10:09:23;;;;;;;2.80;1.10;;;;;;;20.25;59.07;100260.03;5112775;28;20040;-80
2022/06/26 10:11:51;;;;;;;2.72;1.15;;;;;;;19.90;60.06;100269.13;5112516;28;20035;-80
2022/06/26 10:14:18;;;;;;;3.55;1.48;;;;;;;20.23;59.40;100279.00;5112516;28;20039;-79
2022/06/26 10:16:54;;;;;;;5.43;1.10;;;;;;;20.36;57.90;100271.09;5112831;28;20036;-80
2022/06/26 10:19:39;;;;;;;3.83;1.33;;;;;;;20.49;56.82;100258.47;5112834;28;20497;-80
2022/06/26 10:22:05;;;;;;;2.40;1.02;;;;;;;20.99;56.49;100259.06;5094332;28;20035;-79
2022/06/26 10:24:32;;;;;;;2.40;0.93;;;;;;;21.57;53.68;100254.06;5112784;28;20058;-80
2022/06/26 10:27:02;;;;;;;2.65;1.00;;;;;;;21.57;53.59;100254.84;5112631;28;20075;-79
2022/06/26 10:29:37;;;;;;;3.65;1.10;;;;;;;21.21;54.59;100265.31;5112348;28;20466;-79
2022/06/26 10:32:05;;;;;;;2.30;1.00;;;;;;;21.13;54.51;100260.19;5112512;28;20152;-78
2022/06/26 10:34:31;;;;;;;1.75;0.95;;;;;;;21.17;53.88;100267.31;5095492;28;20063;-79
2022/06/26 10:37:03;;;;;;;2.03;0.85;;;;;;;21.09;54.96;100278.81;5095249;28;20031;-78
2022/06/26 10:39:49;;;;;;;2.58;1.00;;;;;;;21.15;53.91;100277.19;5113580;28;20527;-79
2022/06/26 10:45:07;;;;;;;2.83;1.10;;;;;;;20.61;55.58;100274.59;5113191;28;20043;-79
2022/06/26 10:47:42;;;;;;;2.63;0.95;;;;;;;20.24;56.00;100285.31;5111875;28;20044;-80
2022/06/26 10:50:21;;;;;;;3.00;1.10;;;;;;;20.04;55.97;100288.47;5113820;28;20027;-79
2022/06/26 10:52:47;;;;;;;4.18;1.20;;;;;;;20.14;56.88;100287.66;5115670;28;20057;-79
2022/06/26 10:55:12;;;;;;;2.40;0.98;;;;;;;20.14;56.63;100286.88;5115762;28;20024;-79
2022/06/26 10:57:38;;;;;;;2.67;1.13;;;;;;;20.21;56.48;100294.41;5116062;28;20098;-78
2022/06/26 11:00:12;;;;;;;3.85;1.42;;;;;;;20.27;57.15;100298.34;5115909;28;20035;-79
2022/06/26 11:02:40;;;;;;;3.05;1.17;;;;;;;20.25;56.21;100292.41;5097472;28;20031;-77
2022/06/26 11:05:07;;;;;;;4.72;1.40;;;;;;;20.17;56.47;100288.09;5115538;28;20414;-79
2022/06/26 11:07:51;;;;;;;3.00;1.10;;;;;;;20.17;55.88;100282.56;5115703;28;20485;-78
2022/06/26 11:10:22;;;;;;;3.33;1.50;;;;;;;20.30;56.04;100280.94;5115722;28;20039;-77
2022/06/26 11:12:50;;;;;;;4.57;1.40;;;;;;;20.24;55.51;100279.78;5115609;28;20085;-81
2022/06/26 11:15:30;;;;;;;4.15;1.23;;;;;;;20.12;55.65;100278.97;5116609;28;20024;-82
2022/06/26 11:18:01;;;;;;;3.22;1.20;;;;;;;20.11;55.36;100282.94;5099040;28;20347;-85
2022/06/26 11:20:47;;;;;;;3.83;1.20;;;;;;;20.38;55.99;100285.31;5116694;28;20462;-85
2022/06/26 11:23:18;;;;;;;2.33;1.00;;;;;;;20.60;55.01;100273.03;5117028;28;20032;-85
2022/06/26 11:25:44;;;;;;;4.30;1.30;;;;;;;20.42;55.64;100284.13;5117943;28;20079;-85
2022/06/26 11:28:11;;;;;;;2.55;1.00;;;;;;;20.45;55.57;100285.31;5116959;28;20035;-83
2022/06/26 11:30:38;;;;;;;3.67;1.30;;;;;;;20.79;55.05;100277.31;5115938;28;20024;-84
2022/06/26 11:33:04;;;;;;;3.17;0.85;;;;;;;20.65;53.20;100271.81;5115277;28;20038;-82
2022/06/26 11:35:30;;;;;;;2.42;1.15;;;;;;;21.03;53.47;100279.25;5097342;28;20041;-82
2022/06/26 11:37:55;;;;;;;2.35;0.85;;;;;;;20.93;52.70;100276.50;5115266;28;20036;-82
2022/06/26 11:40:22;;;;;;;4.20;1.10;;;;;;;21.20;51.72;100268.50;5115464;28;20482;-83
2022/06/26 11:42:55;;;;;;;2.17;1.00;;;;;;;21.02;53.66;100274.09;5114663;28;20083;-82
2022/06/26 11:45:25;;;;;;;2.20;0.90;;;;;;;21.10;52.96;100278.41;5115951;28;20114;-83
2022/06/26 11:47:51;;;;;;;3.67;0.90;;;;;;;20.97;53.75;100282.81;5116267;28;20103;-84
2022/06/26 11:50:18;;;;;;;2.60;1.00;;;;;;;20.71;53.90;100287.63;5115764;28;20031;-85
2022/06/26 11:52:44;;;;;;;3.78;1.00;;;;;;;20.65;55.46;100289.22;5115139;28;20042;-83
2022/06/26 11:55:09;;;;;;;2.60;1.02;;;;;;;20.68;54.11;100288.44;5115071;28;20027;-79